createdAt,value
2023-03-16T00:01:20.478Z,20.73
2023-03-16T07:04:20.879Z,21.09
2023-03-16T09:00:25.320Z,21.21
2023-03-16T10:08:24.306Z,22.01
2023-03-16T12:44:25.847Z,22.89
2023-03-16T12:56:26.393Z,22.93
2023-03-16T13:00:26.069Z,22.94
2023-03-16T13:04:26.401Z,22.94
2023-03-16T13:08:26.357Z,22.94
2023-03-16T13:12:26.397Z,22.95
2023-03-16T13:20:31.129Z,22.98
2023-03-16T13:28:26.895Z,22.99
2023-03-16T13:40:26.428Z,23.04
2023-03-16T13:44:26.413Z,23.04
2023-03-16T13:48:26.371Z,23.03
2023-03-16T13:52:25.967Z,23.01
2023-03-16T13:56:26.379Z,23.00
2023-03-16T14:00:26.406Z,22.96
2023-03-16T14:04:26.375Z,22.96
2023-03-16T14:08:26.879Z,22.91
2023-03-16T14:12:26.892Z,22.88
2023-03-16T14:16:26.954Z,22.87
2023-03-16T14:20:26.396Z,22.89
2023-03-16T14:24:26.386Z,22.96
2023-03-16T14:28:26.201Z,22.95
2023-03-16T14:32:26.503Z,23.00
2023-03-16T14:36:26.388Z,23.05
2023-03-16T14:40:26.403Z,23.06
2023-03-16T14:44:26.393Z,23.03
2023-03-16T14:48:26.431Z,23.05
2023-03-16T14:52:26.397Z,23.06
2023-03-16T14:56:26.903Z,23.04
2023-03-16T15:00:26.501Z,23.06
2023-03-16T15:04:26.924Z,23.05
2023-03-16T15:08:26.901Z,23.04
2023-03-16T15:12:26.777Z,22.98
2023-03-16T15:16:27.414Z,22.91
2023-03-16T15:20:27.443Z,22.88
2023-03-16T15:24:27.413Z,22.84
2023-03-16T15:28:27.439Z,22.80
2023-03-16T15:44:26.851Z,22.63
2023-03-16T15:52:26.955Z,22.55
2023-03-16T15:56:26.614Z,22.51
2023-03-16T16:00:26.948Z,22.49
2023-03-16T16:04:26.555Z,22.42
2023-03-16T16:08:26.945Z,22.39
2023-03-16T16:12:26.362Z,22.36
2023-03-16T16:16:26.449Z,22.37
2023-03-16T16:20:26.443Z,22.38
2023-03-16T18:20:28.116Z,21.85
2023-03-16T18:24:28.255Z,21.83
2023-03-16T18:28:28.362Z,21.81
2023-03-16T18:32:28.649Z,21.80
2023-03-16T18:36:28.714Z,21.77
2023-03-16T18:40:29.163Z,21.76
2023-03-16T18:44:29.075Z,21.75
2023-03-16T18:48:29.282Z,21.73
2023-03-16T18:52:29.459Z,21.70
2023-03-16T18:56:29.658Z,21.68
2023-03-16T19:00:30.007Z,21.67
2023-03-16T19:04:30.116Z,21.64
2023-03-16T19:08:30.319Z,21.63
2023-03-16T19:12:30.296Z,21.61
2023-03-16T19:16:30.304Z,21.58
2023-03-16T19:20:30.318Z,21.57
2023-03-16T19:24:30.224Z,21.56
2023-03-16T19:28:30.211Z,21.53
2023-03-16T19:32:30.202Z,21.52
2023-03-16T19:36:30.503Z,21.49
2023-03-16T19:40:30.491Z,21.46
2023-03-16T19:44:30.714Z,21.45
2023-03-16T19:48:30.937Z,21.43
2023-03-16T19:52:31.291Z,21.41
2023-03-16T19:56:31.366Z,21.38
2023-03-16T20:00:31.536Z,21.37
2023-03-16T20:04:31.747Z,21.34
2023-03-16T20:08:31.883Z,21.33
2023-03-16T20:12:31.957Z,21.31
2023-03-16T20:16:32.063Z,21.29
2023-03-16T20:20:32.222Z,21.27
2023-03-16T20:24:32.307Z,21.25
2023-03-16T21:04:32.654Z,21.10
2023-03-16T21:08:32.656Z,21.08
2023-03-16T21:12:32.782Z,21.08
2023-03-16T21:16:32.731Z,21.06
2023-03-16T21:20:32.753Z,21.05
2023-03-16T21:24:32.793Z,21.03
2023-03-16T21:28:32.864Z,21.03
2023-03-16T21:32:32.919Z,21.01
